Time;durP1;ratioP1;P1;durP2;ratioP2;P2;SDS_P1;SDS_P2;PMS_P1;PMS_P2;Temp;Humidity;BMP_temperature;BMP_pressure;BME280_temperature;BME280_humidity;BME280_pressure;Samples;Min_cycle;Max_cycle;Signal;HPM_P1;HPM_P2
2024/01/06 00:02:25;;;;;;;7.57;5.07;;;22.70;52.20;;;;;;5108703;28;20031;-76
2024/01/06 00:04:51;;;;;;;7.28;4.55;;;22.70;52.20;;;;;;5075889;28;20039;-76
2024/01/06 00:07:17;;;;;;;6.95;4.30;;;22.60;52.10;;;;;;5107649;28;20067;-76
2024/01/06 00:09:43;;;;;;;7.65;4.32;;;22.60;52.30;;;;;;5108866;28;20126;-76
2024/01/06 00:12:10;;;;;;;7.65;4.68;;;22.80;52.30;;;;;;5108576;28;20139;-76
2024/01/06 00:14:36;;;;;;;11.25;5.13;;;22.60;52.30;;;;;;5108956;28;20031;-75
2024/01/06 00:17:03;;;;;;;8.48;4.63;;;22.60;52.30;;;;;;5108736;28;20126;-76
2024/01/06 00:19:29;;;;;;;6.47;4.32;;;22.70;52.40;;;;;;5108695;28;20043;-76
2024/01/06 00:21:55;;;;;;;7.38;4.70;;;22.70;52.40;;;;;;5110287;28;20050;-76
2024/01/06 00:24:21;;;;;;;8.80;4.57;;;22.70;52.50;;;;;;5110947;28;20115;-76
2024/01/06 00:26:48;;;;;;;7.97;4.72;;;22.70;52.40;;;;;;5111459;28;20040;-75
2024/01/06 00:29:14;;;;;;;5.57;4.55;;;22.60;52.30;;;;;;5111555;28;20046;-76
2024/01/06 00:31:40;;;;;;;7.38;4.78;;;22.80;52.50;;;;;;5074182;28;20038;-76
2024/01/06 00:34:06;;;;;;;9.02;4.47;;;22.80;52.40;;;;;;5111399;28;20106;-76
2024/01/06 00:36:32;;;;;;;5.07;4.05;;;22.70;52.40;;;;;;5111172;28;20035;-75
2024/01/06 00:38:58;;;;;;;5.35;3.67;;;22.90;52.40;;;;;;5091821;28;20187;-74
2024/01/06 00:41:24;;;;;;;8.50;5.10;;;22.60;52.20;;;;;;5110925;28;20032;-76
2024/01/06 00:43:50;;;;;;;7.68;4.28;;;22.70;52.30;;;;;;5111365;28;20110;-76
2024/01/06 00:46:16;;;;;;;8.82;4.97;;;22.60;52.20;;;;;;5111345;28;20051;-76
2024/01/06 00:48:42;;;;;;;8.13;4.30;;;22.60;52.30;;;;;;5111036;28;20354;-76
2024/01/06 00:51:08;;;;;;;5.03;4.07;;;22.70;52.30;;;;;;5109085;28;20062;-77
2024/01/06 00:53:34;;;;;;;5.95;4.50;;;22.80;52.30;;;;;;5108109;28;20035;-76
2024/01/06 00:56:00;;;;;;;6.93;4.78;;;22.70;52.30;;;;;;5111513;28;20077;-76
2024/01/06 00:58:26;;;;;;;8.50;4.45;;;22.60;52.20;;;;;;5111114;28;20151;-75
2024/01/06 01:00:52;;;;;;;5.00;4.18;;;22.70;52.30;;;;;;5110994;28;20035;-76
2024/01/06 01:03:18;;;;;;;8.05;4.18;;;22.60;52.20;;;;;;5067489;28;20127;-77
2024/01/06 01:05:44;;;;;;;6.35;4.18;;;22.60;52.20;;;;;;5067703;28;20047;-76
2024/01/06 01:08:11;;;;;;;8.40;4.90;;;22.40;52.20;;;;;;5067479;28;20049;-76
2024/01/06 01:10:37;;;;;;;9.45;4.93;;;22.50;52.20;;;;;;5034302;28;20041;-76
2024/01/06 01:13:04;;;;;;;7.05;4.55;;;22.60;52.20;;;;;;5067366;28;20048;-76
2024/01/06 01:15:30;;;;;;;7.30;5.03;;;22.50;52.50;;;;;;5068113;28;20153;-77
2024/01/06 01:17:56;;;;;;;8.63;4.63;;;22.60;52.30;;;;;;5067717;28;20097;-76
2024/01/06 01:20:22;;;;;;;6.68;4.45;;;22.70;52.30;;;;;;5067323;28;20131;-76
2024/01/06 01:22:48;;;;;;;8.38;4.72;;;22.70;52.50;;;;;;5048829;28;20103;-76
2024/01/06 01:25:14;;;;;;;7.95;4.60;;;22.70;52.50;;;;;;5051489;28;20025;-76
2024/01/06 01:27:40;;;;;;;7.18;4.20;;;22.70;52.40;;;;;;5067964;28;20036;-76
2024/01/06 01:30:07;;;;;;;6.63;4.18;;;22.70;52.40;;;;;;5071148;28;20044;-76
2024/01/06 01:32:33;;;;;;;6.95;4.68;;;22.70;52.40;;;;;;5070657;28;20033;-76
2024/01/06 01:34:59;;;;;;;6.35;3.85;;;22.70;52.40;;;;;;5104450;28;20136;-76
2024/01/06 01:37:25;;;;;;;7.10;4.22;;;22.70;52.40;;;;;;5098794;28;20081;-76
2024/01/06 01:39:51;;;;;;;6.72;4.20;;;22.70;52.30;;;;;;5112976;28;20040;-76
2024/01/06 01:42:18;;;;;;;9.02;4.55;;;22.60;52.30;;;;;;5113221;28;20032;-76
2024/01/06 01:44:44;;;;;;;7.60;4.95;;;22.50;52.30;;;;;;5114069;28;20040;-75
2024/01/06 01:47:11;;;;;;;6.75;4.20;;;22.60;52.60;;;;;;5114023;28;20034;-76
2024/01/06 01:49:38;;;;;;;7.68;5.18;;;22.60;52.30;;;;;;5112907;28;20049;-77
2024/01/06 01:52:04;;;;;;;7.55;4.22;;;22.60;52.40;;;;;;5113103;28;20032;-79
2024/01/06 01:54:30;;;;;;;9.18;5.07;;;22.50;52.30;;;;;;5114053;28;20039;-77
2024/01/06 01:56:56;;;;;;;8.25;4.30;;;22.40;52.40;;;;;;5112056;28;20032;-77
2024/01/06 01:59:22;;;;;;;6.93;4.18;;;22.50;52.50;;;;;;5073453;28;20571;-77
2024/01/06 02:01:49;;;;;;;7.45;4.13;;;22.50;52.40;;;;;;5098574;28;20020;-78
2024/01/06 02:04:15;;;;;;;5.97;3.55;;;22.40;52.30;;;;;;5112848;28;20023;-79
2024/01/06 02:06:41;;;;;;;8.35;4.32;;;22.50;52.40;;;;;;5114062;28;20030;-79
2024/01/06 02:09:07;;;;;;;8.10;4.80;;;22.50;52.40;;;;;;5114397;28;20089;-77
2024/01/06 02:11:34;;;;;;;4.80;4.15;;;22.30;52.30;;;;;;5113427;28;20028;-77
2024/01/06 02:14:00;;;;;;;7.93;4.50;;;22.40;52.20;;;;;;5114093;28;20043;-77
2024/01/06 02:16:26;;;;;;;7.30;4.13;;;22.50;52.20;;;;;;5112623;28;20200;-79
2024/01/06 02:18:52;;;;;;;7.32;4.05;;;22.50;52.10;;;;;;5113009;28;20095;-78
2024/01/06 02:21:21;;;;;;;7.20;4.38;;;22.50;52.10;;;;;;5113117;28;20555;-76
2024/01/06 02:23:48;;;;;;;9.00;4.70;;;22.40;51.90;;;;;;5112236;28;20437;-77
2024/01/06 02:26:15;;;;;;;6.18;3.97;;;22.40;51.90;;;;;;5113523;28;20073;-77
2024/01/06 02:28:44;;;;;;;6.57;4.22;;;22.60;51.90;;;;;;5113642;28;20035;-79
2024/01/06 02:31:10;;;;;;;7.30;4.72;;;22.40;51.70;;;;;;5113114;28;20115;-78
2024/01/06 02:33:37;;;;;;;5.03;3.88;;;22.50;51.70;;;;;;5110918;28;20044;-77
2024/01/06 02:36:03;;;;;;;8.77;4.78;;;22.60;51.70;;;;;;5111714;28;20036;-78
2024/01/06 02:38:29;;;;;;;7.80;4.32;;;22.60;51.60;;;;;;5052974;28;20147;-77
2024/01/06 02:40:56;;;;;;;10.88;5.18;;;22.60;51.60;;;;;;5069681;28;20049;-79
2024/01/06 02:43:23;;;;;;;8.82;4.63;;;22.50;51.60;;;;;;5069673;28;20126;-78
2024/01/06 02:45:49;;;;;;;5.70;3.60;;;22.40;51.50;;;;;;5051676;28;20036;-76
2024/01/06 02:48:16;;;;;;;7.20;4.35;;;22.40;51.40;;;;;;5036454;28;20115;-77
2024/01/06 02:50:42;;;;;;;7.60;4.38;;;22.50;51.40;;;;;;5074019;28;20199;-77
2024/01/06 02:53:09;;;;;;;10.63;5.25;;;22.40;51.30;;;;;;5070489;28;20489;-79
2024/01/06 02:55:35;;;;;;;8.95;4.85;;;22.50;51.50;;;;;;5052729;28;20469;-77
2024/01/06 02:58:02;;;;;;;7.80;4.32;;;22.40;51.30;;;;;;5069594;28;20044;-77
2024/01/06 03:00:28;;;;;;;8.05;5.30;;;22.40;51.30;;;;;;5069149;28;20041;-77
2024/01/06 03:02:54;;;;;;;5.75;4.10;;;22.40;51.40;;;;;;5069112;28;20028;-77
2024/01/06 03:05:20;;;;;;;6.97;4.43;;;22.40;51.40;;;;;;5069487;28;20044;-79
2024/01/06 03:07:46;;;;;;;7.35;4.60;;;22.30;51.30;;;;;;5019389;28;20149;-77
2024/01/06 03:10:12;;;;;;;9.32;4.45;;;22.40;51.30;;;;;;5084993;28;20044;-73
2024/01/06 03:12:39;;;;;;;5.70;4.07;;;22.40;51.20;;;;;;5111298;28;20038;-77
2024/01/06 03:15:05;;;;;;;5.65;4.20;;;22.30;51.20;;;;;;5111136;28;20034;-77
2024/01/06 03:17:31;;;;;;;7.38;4.45;;;22.50;51.10;;;;;;5112210;28;20043;-78
2024/01/06 03:19:57;;;;;;;8.27;4.53;;;22.30;51.00;;;;;;5112465;28;20046;-77
2024/01/06 03:22:24;;;;;;;7.63;4.72;;;22.30;50.90;;;;;;5069570;28;20529;-76
2024/01/06 03:24:50;;;;;;;7.60;4.55;;;22.50;51.10;;;;;;5092139;28;20491;-75
2024/01/06 03:27:16;;;;;;;7.47;4.45;;;22.40;51.00;;;;;;5097313;28;20028;-77
2024/01/06 03:29:42;;;;;;;11.07;4.82;;;22.50;51.10;;;;;;5112686;28;20039;-79
2024/01/06 03:32:08;;;;;;;8.05;4.70;;;22.30;51.00;;;;;;5111413;28;20046;-77
2024/01/06 03:34:34;;;;;;;7.03;4.40;;;22.50;51.10;;;;;;5112261;28;20028;-76
2024/01/06 03:37:00;;;;;;;7.22;4.82;;;22.50;51.10;;;;;;5109946;28;20468;-77
2024/01/06 03:39:26;;;;;;;11.82;5.13;;;22.40;51.00;;;;;;5111895;28;20122;-77
2024/01/06 03:41:52;;;;;;;6.13;4.30;;;22.30;51.00;;;;;;5109515;28;20027;-78
2024/01/06 03:44:18;;;;;;;8.10;5.03;;;22.30;51.00;;;;;;5111832;28;20028;-77
2024/01/06 03:46:45;;;;;;;7.10;4.55;;;22.30;51.00;;;;;;5112099;28;20030;-76
2024/01/06 03:49:11;;;;;;;6.80;4.53;;;22.30;51.00;;;;;;5104293;28;20070;-77
2024/01/06 03:51:37;;;;;;;8.45;4.68;;;22.30;51.00;;;;;;5075181;28;20047;-78
2024/01/06 03:54:03;;;;;;;7.72;4.68;;;22.20;50.90;;;;;;5111128;28;20058;-78
2024/01/06 03:56:29;;;;;;;9.05;4.85;;;22.20;50.80;;;;;;5111978;28;20391;-78
2024/01/06 03:58:55;;;;;;;7.78;4.50;;;22.20;50.80;;;;;;5111876;28;20047;-76
2024/01/06 04:01:21;;;;;;;6.15;4.50;;;22.10;50.90;;;;;;5111767;28;20038;-77
2024/01/06 04:03:47;;;;;;;9.35;6.03;;;22.10;50.90;;;;;;5111660;28;20028;-78
2024/01/06 04:06:13;;;;;;;9.75;6.38;;;22.20;50.70;;;;;;5111160;28;20030;-77
2024/01/06 04:08:41;;;;;;;8.90;5.90;;;22.20;50.70;;;;;;5111909;28;20036;-77
2024/01/06 04:11:07;;;;;;;12.23;6.47;;;22.30;50.60;;;;;;5109978;28;20072;-77
2024/01/06 04:13:33;;;;;;;10.60;5.43;;;22.20;50.50;;;;;;5110371;28;20036;-78
2024/01/06 04:15:59;;;;;;;14.40;7.22;;;22.40;50.60;;;;;;5111512;28;20035;-78
2024/01/06 04:18:25;;;;;;;10.30;5.78;;;22.20;50.50;;;;;;5111290;28;20046;-77
2024/01/06 04:20:51;;;;;;;5.50;4.53;;;22.30;50.50;;;;;;5109181;28;20402;-77
2024/01/06 04:23:17;;;;;;;10.25;5.63;;;22.20;50.30;;;;;;5089637;28;20039;-76
2024/01/06 04:25:43;;;;;;;7.65;4.85;;;22.20;50.30;;;;;;5091608;28;20034;-78
2024/01/06 04:28:09;;;;;;;7.13;4.93;;;22.20;50.30;;;;;;5091271;28;20035;-78
2024/01/06 04:30:35;;;;;;;8.32;4.65;;;22.10;50.30;;;;;;5106382;28;20040;-76
2024/01/06 04:33:01;;;;;;;8.68;5.50;;;22.10;50.30;;;;;;5111295;28;20467;-77
2024/01/06 04:35:28;;;;;;;7.95;5.13;;;22.20;50.30;;;;;;5111304;28;20031;-77
2024/01/06 04:37:54;;;;;;;7.80;4.82;;;22.20;50.30;;;;;;5111609;28;20062;-79
2024/01/06 04:40:20;;;;;;;10.15;5.00;;;22.10;50.30;;;;;;5075106;28;20036;-76
2024/01/06 04:42:46;;;;;;;12.52;5.63;;;22.20;50.30;;;;;;5110576;28;20031;-76
2024/01/06 04:45:12;;;;;;;11.48;5.57;;;22.10;50.30;;;;;;5111915;28;20106;-77
2024/01/06 04:47:38;;;;;;;8.70;5.38;;;22.10;50.30;;;;;;5109815;28;20435;-76
2024/01/06 04:50:05;;;;;;;8.90;5.03;;;22.00;50.20;;;;;;5111118;28;20527;-79
2024/01/06 04:52:32;;;;;;;10.25;5.15;;;22.10;50.30;;;;;;5108721;28;20040;-77
2024/01/06 04:54:58;;;;;;;7.55;5.20;;;22.10;50.30;;;;;;5111182;28;20040;-76
2024/01/06 04:57:24;;;;;;;7.30;4.90;;;22.10;50.30;;;;;;5114548;28;20107;-76
2024/01/06 04:59:50;;;;;;;10.65;6.22;;;22.00;50.10;;;;;;5115216;28;20023;-77
2024/01/06 05:02:16;;;;;;;9.45;5.68;;;22.20;50.10;;;;;;5114147;28;20043;-78
2024/01/06 05:04:42;;;;;;;7.35;5.90;;;22.10;50.10;;;;;;5113556;28;20039;-77
2024/01/06 05:07:08;;;;;;;10.90;5.60;;;22.10;50.00;;;;;;5114132;28;20023;-76
2024/01/06 05:09:34;;;;;;;7.63;5.38;;;22.10;50.00;;;;;;5114117;28;20058;-77
2024/01/06 05:12:01;;;;;;;7.55;5.97;;;22.10;50.00;;;;;;5114395;28;20031;-78
2024/01/06 05:14:27;;;;;;;11.15;5.75;;;22.20;49.90;;;;;;5113317;28;20028;-77
2024/01/06 05:16:53;;;;;;;8.77;5.85;;;22.20;49.90;;;;;;5114506;27;20067;-77
2024/01/06 05:19:20;;;;;;;9.18;6.00;;;22.20;49.80;;;;;;5114089;28;20483;-76
2024/01/06 05:21:50;;;;;;;10.75;6.25;;;22.10;49.80;;;;;;5113395;28;20038;-76
2024/01/06 05:24:16;;;;;;;12.90;6.65;;;22.10;49.80;;;;;;5113021;28;20032;-77
2024/01/06 05:26:45;;;;;;;9.77;6.47;;;22.00;49.70;;;;;;5113126;28;20151;-78
2024/01/06 05:29:11;;;;;;;7.88;6.30;;;22.10;49.80;;;;;;5114314;28;20032;-78
2024/01/06 05:31:37;;;;;;;10.52;6.25;;;22.00;49.70;;;;;;5113573;28;20038;-76
2024/01/06 05:34:04;;;;;;;10.07;5.97;;;22.10;49.80;;;;;;5113662;27;20031;-77
2024/01/06 05:36:30;;;;;;;15.00;7.05;;;22.10;49.90;;;;;;5113046;28;20073;-78
2024/01/06 05:38:56;;;;;;;7.78;5.68;;;21.90;49.80;;;;;;5114468;28;20031;-78
2024/01/06 05:41:22;;;;;;;11.63;5.88;;;22.00;49.90;;;;;;5114059;27;20043;-78
2024/01/06 05:43:49;;;;;;;10.10;6.10;;;22.00;49.80;;;;;;5114285;28;20147;-78
2024/01/06 05:46:24;;;;;;;10.65;6.13;;;21.90;49.80;;;;;;5105861;27;20042;-79
2024/01/06 05:48:50;;;;;;;6.57;5.05;;;22.00;49.80;;;;;;5100925;28;20035;-78
2024/01/06 05:51:16;;;;;;;10.40;5.85;;;21.90;49.80;;;;;;5113908;28;20063;-77
2024/01/06 05:53:42;;;;;;;9.27;5.45;;;22.10;49.90;;;;;;5114000;28;20058;-78
2024/01/06 05:56:09;;;;;;;9.68;5.88;;;21.90;49.70;;;;;;5094692;28;20467;-79
2024/01/06 05:58:35;;;;;;;9.68;6.53;;;22.00;49.70;;;;;;5112475;28;20111;-78
2024/01/06 06:01:01;;;;;;;10.65;6.78;;;22.10;49.70;;;;;;5114195;28;20031;-78
2024/01/06 06:03:27;;;;;;;10.13;6.18;;;22.10;49.70;;;;;;5111731;28;20031;-78
2024/01/06 06:05:53;;;;;;;14.07;6.35;;;21.90;49.50;;;;;;5113443;28;20080;-78
2024/01/06 06:08:19;;;;;;;9.80;6.10;;;22.00;49.50;;;;;;5112818;28;20059;-78
2024/01/06 06:11:01;;;;;;;9.73;6.60;;;22.10;49.50;;;;;;5113739;28;20024;-78
2024/01/06 06:13:28;;;;;;;9.80;6.82;;;22.10;49.50;;;;;;5113413;28;20039;-76
2024/01/06 06:15:55;;;;;;;11.88;6.53;;;22.00;49.40;;;;;;5114005;28;20039;-78
2024/01/06 06:18:21;;;;;;;8.68;5.78;;;22.00;49.40;;;;;;5113548;27;20153;-78
2024/01/06 06:20:47;;;;;;;13.60;6.43;;;22.00;49.40;;;;;;5112370;28;20478;-78
2024/01/06 06:23:13;;;;;;;11.77;7.03;;;22.00;49.50;;;;;;5113021;28;20022;-78
2024/01/06 06:25:39;;;;;;;12.32;6.55;;;21.90;49.50;;;;;;5111950;28;20019;-78
2024/01/06 06:28:06;;;;;;;9.32;5.97;;;22.00;49.60;;;;;;5105450;28;20031;-78
2024/01/06 06:30:32;;;;;;;4.10;3.00;;;21.90;49.90;;;;;;5107698;28;20451;-79
2024/01/06 06:32:58;;;;;;;3.88;2.67;;;21.90;47.80;;;;;;5104149;28;20044;-78
2024/01/06 06:35:26;;;;;;;3.17;2.35;;;22.00;45.10;;;;;;5083113;28;20039;-78
2024/01/06 06:37:52;;;;;;;4.22;3.35;;;22.10;48.80;;;;;;5103684;28;20031;-77
2024/01/06 06:40:18;;;;;;;7.38;4.65;;;22.00;43.10;;;;;;5105659;28;20062;-77
2024/01/06 06:42:44;;;;;;;6.13;3.05;;;21.90;42.20;;;;;;5102408;28;20036;-78
2024/01/06 06:45:11;;;;;;;5.57;3.20;;;21.90;44.80;;;;;;5100337;28;20055;-78
2024/01/06 06:47:37;;;;;;;3.83;3.13;;;22.00;46.10;;;;;;5106018;28;20032;-76
2024/01/06 06:50:04;;;;;;;4.07;2.45;;;22.00;47.40;;;;;;5099745;28;20464;-77
2024/01/06 06:52:30;;;;;;;2.80;2.42;;;22.00;47.80;;;;;;5102342;28;20560;-83
2024/01/06 06:54:56;;;;;;;4.32;3.10;;;22.10;50.20;;;;;;5099142;28;20027;-82
2024/01/06 06:57:22;;;;;;;6.95;4.50;;;22.30;52.30;;;;;;5102309;28;20135;-78
2024/01/06 06:59:49;;;;;;;12.70;9.30;;;22.40;53.60;;;;;;5100263;28;20020;-78
2024/01/06 07:02:15;;;;;;;13.52;9.50;;;22.50;52.80;;;;;;5101026;28;20516;-75
2024/01/06 07:04:41;;;;;;;8.52;6.35;;;22.40;52.40;;;;;;5104099;28;20495;-78
2024/01/06 07:07:07;;;;;;;7.45;5.30;;;22.50;47.60;;;;;;5109517;28;20019;-81
2024/01/06 07:09:33;;;;;;;10.70;4.82;;;22.50;50.00;;;;;;5112306;28;20032;-75
2024/01/06 07:11:59;;;;;;;9.15;4.95;;;22.50;45.30;;;;;;5110942;28;20472;-75
2024/01/06 07:14:25;;;;;;;8.70;4.60;;;22.50;45.30;;;;;;5111795;28;20046;-76
2024/01/06 07:16:51;;;;;;;7.97;6.10;;;22.60;47.70;;;;;;5111056;28;20039;-78
2024/01/06 07:19:17;;;;;;;3.53;3.22;;;22.50;44.20;;;;;;5112139;27;20039;-79
2024/01/06 07:21:43;;;;;;;10.73;6.60;;;22.60;44.40;;;;;;5104290;28;20022;-77
2024/01/06 07:24:09;;;;;;;10.60;6.15;;;22.60;52.00;;;;;;5092678;28;20036;-74
2024/01/06 07:26:36;;;;;;;10.95;6.53;;;22.60;53.00;;;;;;5107078;28;20055;-76
2024/01/06 07:29:02;;;;;;;10.63;6.47;;;22.70;52.80;;;;;;5110935;28;20031;-70
2024/01/06 07:31:28;;;;;;;10.55;6.75;;;22.70;55.10;;;;;;5110597;28;20538;-75
2024/01/06 07:33:54;;;;;;;12.05;7.43;;;22.70;57.30;;;;;;5111127;28;20092;-72
2024/01/06 07:36:21;;;;;;;15.65;8.02;;;22.60;57.70;;;;;;5109576;28;20386;-74
2024/01/06 07:38:47;;;;;;;13.13;6.65;;;22.80;56.80;;;;;;5106839;28;20035;-73
2024/01/06 07:41:13;;;;;;;8.95;6.03;;;22.70;56.20;;;;;;5111026;28;20118;-75
2024/01/06 07:43:40;;;;;;;10.38;6.45;;;22.70;55.90;;;;;;5070449;28;20043;-74
2024/01/06 07:46:06;;;;;;;9.82;6.07;;;22.80;55.80;;;;;;5109332;28;20019;-71
2024/01/06 07:48:33;;;;;;;10.18;6.50;;;22.70;55.80;;;;;;5110995;28;20049;-73
2024/01/06 07:50:59;;;;;;;8.63;6.22;;;22.90;55.80;;;;;;5109236;28;20065;-74
2024/01/06 07:53:25;;;;;;;7.47;5.78;;;22.80;55.50;;;;;;5107279;28;20063;-73
2024/01/06 07:55:51;;;;;;;9.77;6.22;;;22.90;55.80;;;;;;5073564;28;20110;-72
2024/01/06 07:58:17;;;;;;;8.48;5.72;;;22.90;55.60;;;;;;5104258;28;21074;-75
2024/01/06 08:00:43;;;;;;;9.48;5.82;;;22.80;55.20;;;;;;5110860;28;20514;-72
2024/01/06 08:03:11;;;;;;;11.85;6.10;;;22.90;55.20;;;;;;5108867;28;20023;-77
2024/01/06 08:05:37;;;;;;;12.48;7.10;;;22.90;55.30;;;;;;5101299;28;20020;-73
2024/01/06 08:08:04;;;;;;;10.45;6.88;;;22.80;55.30;;;;;;5108773;28;20053;-76
2024/01/06 08:10:31;;;;;;;9.60;6.80;;;22.90;55.50;;;;;;5111132;28;20035;-74
2024/01/06 08:12:57;;;;;;;10.70;7.15;;;22.90;55.50;;;;;;5110669;28;20046;-74
2024/01/06 08:15:23;;;;;;;9.07;6.88;;;22.80;55.20;;;;;;5110683;28;20071;-74
2024/01/06 08:17:49;;;;;;;9.57;5.97;;;22.90;55.10;;;;;;5110299;28;20456;-74
2024/01/06 08:20:15;;;;;;;12.32;7.57;;;23.00;55.00;;;;;;5110681;28;20106;-75
2024/01/06 08:22:41;;;;;;;9.35;6.28;;;22.90;55.00;;;;;;5110363;28;20032;-74
2024/01/06 08:25:07;;;;;;;9.45;6.28;;;23.00;54.90;;;;;;5110396;28;20069;-73
2024/01/06 08:27:34;;;;;;;9.13;6.30;;;23.00;55.00;;;;;;5074537;28;20104;-73
2024/01/06 08:30:01;;;;;;;9.10;6.97;;;23.10;54.90;;;;;;5111849;28;20101;-73
2024/01/06 08:32:27;;;;;;;13.00;6.72;;;23.00;54.50;;;;;;5092991;28;20044;-73
2024/01/06 08:34:53;;;;;;;11.98;7.75;;;23.00;54.30;;;;;;5114443;28;20069;-73
2024/01/06 08:37:19;;;;;;;10.70;6.45;;;23.10;54.40;;;;;;5115143;28;20455;-74
2024/01/06 08:39:46;;;;;;;9.50;6.28;;;22.90;54.40;;;;;;5114222;28;20054;-72
2024/01/06 08:42:12;;;;;;;8.82;5.18;;;23.00;54.40;;;;;;5106871;28;20036;-74
2024/01/06 08:44:38;;;;;;;9.23;6.43;;;23.10;54.40;;;;;;5092168;28;20439;-74
2024/01/06 08:47:04;;;;;;;10.48;5.93;;;23.00;54.30;;;;;;5093348;28;20039;-72
2024/01/06 08:49:30;;;;;;;8.68;6.05;;;23.00;54.30;;;;;;5094711;28;20563;-74
2024/01/06 08:51:58;;;;;;;8.55;5.97;;;22.90;54.30;;;;;;5113690;28;20080;-73
2024/01/06 08:54:24;;;;;;;11.07;6.53;;;22.90;54.30;;;;;;5095299;28;20138;-74
2024/01/06 08:56:50;;;;;;;9.82;5.97;;;23.00;54.30;;;;;;5114979;28;20779;-74
2024/01/06 08:59:16;;;;;;;9.00;6.18;;;22.90;54.30;;;;;;5114403;28;20130;-73
2024/01/06 09:01:42;;;;;;;9.10;6.65;;;22.80;54.10;;;;;;5114774;28;20049;-74
2024/01/06 09:04:11;;;;;;;9.88;6.22;;;22.80;54.20;;;;;;5113856;28;20467;-74
2024/01/06 09:06:37;;;;;;;9.65;5.95;;;22.90;54.40;;;;;;5114006;28;20122;-73
2024/01/06 09:09:03;;;;;;;7.18;4.57;;;22.80;54.30;;;;;;5114507;28;20020;-69
2024/01/06 09:11:29;;;;;;;5.45;3.10;;;22.90;54.30;;;;;;5114316;28;20039;-70
2024/01/06 09:13:55;;;;;;;5.80;2.38;;;22.90;54.30;;;;;;5114070;28;20122;-69
2024/01/06 09:16:21;;;;;;;2.80;2.13;;;22.90;53.90;;;;;;5108830;28;20053;-67
2024/01/06 09:18:49;;;;;;;4.00;2.72;;;23.00;53.40;;;;;;5098810;28;20555;-68
2024/01/06 09:21:15;;;;;;;7.88;3.10;;;22.90;52.80;;;;;;5090287;28;20052;-67
2024/01/06 09:23:41;;;;;;;6.50;3.30;;;22.90;52.10;;;;;;5090594;28;20091;-66
2024/01/06 09:26:07;;;;;;;8.52;3.47;;;22.90;51.30;;;;;;5091122;28;20040;-67
2024/01/06 09:28:33;;;;;;;5.47;3.60;;;22.90;50.90;;;;;;5090673;28;20040;-71
2024/01/06 09:30:59;;;;;;;6.78;3.60;;;23.00;50.20;;;;;;5090042;28;20055;-68
2024/01/06 09:33:25;;;;;;;5.88;3.88;;;23.00;50.00;;;;;;5091041;28;20503;-66
2024/01/06 09:35:51;;;;;;;5.65;3.60;;;22.90;49.60;;;;;;5070916;28;20104;-68
2024/01/06 09:38:18;;;;;;;5.35;3.90;;;23.10;49.20;;;;;;5090030;28;20324;-69
2024/01/06 09:40:45;;;;;;;7.80;3.72;;;23.10;48.40;;;;;;5089738;28;20104;-69
2024/01/06 09:43:13;;;;;;;12.02;5.97;;;23.10;47.90;;;;;;5072772;28;20479;-73
2024/01/06 09:45:39;;;;;;;7.85;5.38;;;23.20;47.70;;;;;;5090739;28;20031;-71
2024/01/06 09:48:12;;;;;;;7.65;4.90;;;23.10;47.00;;;;;;5073971;28;20040;-68
2024/01/06 09:50:44;;;;;;;10.32;5.90;;;23.10;46.30;;;;;;5089659;28;20040;-70
2024/01/06 09:53:14;;;;;;;7.00;5.20;;;23.10;46.00;;;;;;5110382;28;20043;-71
2024/01/06 09:55:40;;;;;;;7.68;5.10;;;23.10;45.70;;;;;;5113592;28;20024;-72
2024/01/06 09:58:08;;;;;;;8.73;5.97;;;23.10;45.80;;;;;;5113702;27;20042;-73
2024/01/06 10:00:34;;;;;;;8.85;5.93;;;23.10;46.00;;;;;;5112440;28;20023;-73
2024/01/06 10:03:00;;;;;;;11.65;5.97;;;23.00;46.50;;;;;;5107928;28;20142;-73
2024/01/06 10:05:26;;;;;;;12.63;7.57;;;23.00;46.90;;;;;;5111225;28;20036;-74
2024/01/06 10:07:52;;;;;;;9.20;6.78;;;23.00;47.20;;;;;;5093246;28;20080;-74
2024/01/06 10:10:19;;;;;;;10.98;7.00;;;23.00;47.50;;;;;;5092926;28;20084;-73
2024/01/06 10:12:46;;;;;;;8.70;6.05;;;22.80;47.50;;;;;;5111037;28;20131;-76
2024/01/06 10:15:12;;;;;;;9.05;6.18;;;22.90;47.90;;;;;;5112848;28;20030;-72
2024/01/06 10:17:42;;;;;;;8.13;5.88;;;22.80;48.00;;;;;;5111394;28;20043;-77
2024/01/06 10:20:10;;;;;;;8.40;6.47;;;22.70;48.30;;;;;;5112823;28;20539;-71
2024/01/06 10:22:37;;;;;;;10.07;6.45;;;22.90;48.20;;;;;;5113207;28;20031;-74
2024/01/06 10:25:07;;;;;;;10.65;6.53;;;22.70;48.30;;;;;;5111598;28;20034;-73
2024/01/06 10:27:38;;;;;;;12.52;6.72;;;22.70;48.40;;;;;;5113115;28;20077;-76
2024/01/06 10:30:08;;;;;;;10.75;6.47;;;22.80;50.50;;;;;;5112937;28;20031;-75
2024/01/06 10:32:36;;;;;;;11.18;6.45;;;22.80;51.30;;;;;;5107756;28;20467;-74
2024/01/06 10:35:06;;;;;;;8.20;5.60;;;22.70;51.60;;;;;;5097481;28;20024;-73
2024/01/06 10:37:32;;;;;;;9.77;6.00;;;22.70;51.30;;;;;;5105858;28;20024;-76
2024/01/06 10:40:13;;;;;;;8.15;4.40;;;22.80;51.30;;;;;;5112292;28;20469;-73
2024/01/06 10:42:40;;;;;;;7.35;4.68;;;23.00;52.30;;;;;;5113266;28;20027;-73
2024/01/06 10:45:09;;;;;;;16.70;4.88;;;23.00;51.40;;;;;;5099212;28;20122;-74
2024/01/06 10:47:36;;;;;;;8.32;4.55;;;23.10;50.50;;;;;;5070447;28;20024;-76
2024/01/06 10:50:04;;;;;;;7.15;4.70;;;23.10;51.10;;;;;;5102509;28;20110;-74
2024/01/06 10:52:30;;;;;;;8.15;4.60;;;23.30;52.80;;;;;;5107306;28;20054;-74
2024/01/06 10:54:58;;;;;;;9.60;5.75;;;23.10;51.90;;;;;;5106365;28;20092;-73
2024/01/06 10:57:24;;;;;;;10.05;6.53;;;23.10;53.30;;;;;;5084808;28;20102;-78
2024/01/06 10:59:51;;;;;;;11.90;7.65;;;23.20;52.30;;;;;;5102916;28;20080;-72
2024/01/06 11:02:18;;;;;;;9.93;6.03;;;23.20;52.00;;;;;;5108560;27;20070;-75
2024/01/06 11:04:48;;;;;;;8.65;5.15;;;23.20;51.40;;;;;;5111604;28;20016;-75
2024/01/06 11:07:17;;;;;;;7.45;6.05;;;23.30;51.50;;;;;;5108989;28;20054;-74
2024/01/06 11:09:51;;;;;;;9.77;5.43;;;23.10;51.40;;;;;;5112751;28;20456;-77
2024/01/06 11:12:18;;;;;;;4.78;3.83;;;23.20;54.70;;;;;;5110240;28;20134;-71
2024/01/06 11:14:45;;;;;;;8.18;4.63;;;23.80;53.60;;;;;;5058985;28;20074;-74
2024/01/06 11:17:11;;;;;;;7.68;4.20;;;24.30;53.40;;;;;;5111302;28;20458;-77
2024/01/06 11:19:38;;;;;;;8.68;4.32;;;24.40;50.90;;;;;;5109236;28;20107;-72
2024/01/06 11:22:31;;;;;;;6.65;4.68;;;24.20;46.30;;;;;;5111643;28;20115;-74
2024/01/06 11:25:08;;;;;;;7.97;4.70;;;24.30;49.20;;;;;;5099723;28;20051;-74
2024/01/06 11:27:35;;;;;;;8.32;5.22;;;24.30;50.40;;;;;;5098215;28;20031;-74
2024/01/06 11:30:06;;;;;;;7.38;4.80;;;24.20;47.40;;;;;;5099132;28;20023;-74
2024/01/06 11:32:38;;;;;;;6.07;4.38;;;24.30;45.10;;;;;;5094392;28;20036;-74
2024/01/06 11:35:09;;;;;;;8.57;5.43;;;24.30;43.80;;;;;;5092331;28;20031;-76
2024/01/06 11:37:41;;;;;;;10.32;6.10;;;24.50;46.90;;;;;;5094548;28;20353;-74
2024/01/06 11:40:15;;;;;;;8.15;5.70;;;24.50;47.90;;;;;;5103760;28;20468;-77
2024/01/06 11:42:42;;;;;;;11.48;5.65;;;24.30;48.30;;;;;;5111095;28;20114;-76
2024/01/06 11:45:08;;;;;;;11.45;5.85;;;24.50;49.20;;;;;;5111163;28;20107;-76
2024/01/06 11:47:35;;;;;;;10.02;4.85;;;24.30;49.40;;;;;;5095120;28;20114;-72
2024/01/06 11:50:05;;;;;;;7.60;5.15;;;24.40;49.40;;;;;;5110996;28;20475;-73
2024/01/06 11:52:33;;;;;;;11.82;6.28;;;24.40;49.30;;;;;;5111040;28;20048;-73
2024/01/06 11:55:00;;;;;;;7.55;4.70;;;24.40;49.20;;;;;;5110986;28;20055;-73
2024/01/06 11:57:27;;;;;;;7.30;5.35;;;24.40;48.90;;;;;;5106136;28;20035;-74
2024/01/06 11:59:53;;;;;;;10.25;6.25;;;24.40;48.90;;;;;;5110590;28;20032;-74
2024/01/06 12:02:22;;;;;;;9.65;5.55;;;24.40;49.10;;;;;;5111866;28;20027;-73
2024/01/06 12:04:57;;;;;;;7.38;5.32;;;24.40;49.60;;;;;;5111553;28;20059;-72
2024/01/06 12:07:23;;;;;;;9.10;5.40;;;24.40;50.90;;;;;;5111251;28;20046;-71
2024/01/06 12:10:11;;;;;;;7.68;5.60;;;24.50;50.80;;;;;;5102965;28;20034;-73
2024/01/06 12:12:38;;;;;;;9.05;5.88;;;24.50;50.60;;;;;;5111485;28;20105;-72
2024/01/06 12:15:05;;;;;;;8.40;5.50;;;24.40;50.30;;;;;;5111842;28;20028;-73
2024/01/06 12:17:31;;;;;;;8.63;5.20;;;24.40;50.30;;;;;;5111606;28;20060;-73
2024/01/06 12:19:57;;;;;;;7.68;5.57;;;24.30;50.40;;;;;;5110805;28;20042;-72
2024/01/06 12:22:23;;;;;;;10.45;5.35;;;24.40;50.40;;;;;;5111043;28;20104;-74
2024/01/06 12:24:50;;;;;;;9.45;6.22;;;24.30;50.50;;;;;;5110780;28;20046;-73
2024/01/06 12:27:18;;;;;;;6.88;5.03;;;24.30;50.50;;;;;;5111641;28;20383;-73
2024/01/06 12:29:44;;;;;;;9.35;5.55;;;24.50;51.20;;;;;;5110859;28;20491;-73
2024/01/06 12:32:13;;;;;;;8.88;5.82;;;24.50;51.10;;;;;;5072523;28;20048;-73
2024/01/06 12:34:39;;;;;;;9.20;6.20;;;24.40;50.30;;;;;;5102365;28;20028;-72
2024/01/06 12:37:07;;;;;;;8.35;5.18;;;24.60;50.60;;;;;;5111326;28;20467;-73
2024/01/06 12:39:33;;;;;;;7.60;5.47;;;24.40;50.50;;;;;;5110769;28;20026;-73
2024/01/06 12:42:01;;;;;;;9.88;6.07;;;24.50;50.70;;;;;;5110920;28;20028;-72
2024/01/06 12:44:28;;;;;;;8.52;5.45;;;24.40;50.60;;;;;;5110868;28;20112;-73